Time;durP1;ratioP1;P1;durP2;ratioP2;P2;SDS_P1;SDS_P2;PMS_P1;PMS_P2;Temp;Humidity;BMP_temperature;BMP_pressure;BME280_temperature;BME280_humidity;BME280_pressure;Samples;Min_cycle;Max_cycle;Signal;HPM_P1;HPM_P2
2023/04/13 00:02:02;;;;;;;8.10;4.78;;;;;;;;;;4983046;28;20100;-79
2023/04/13 00:04:30;;;;;;;7.85;4.85;;;;;;;;;;5013939;28;20045;-79
2023/04/13 00:06:57;;;;;;;9.25;5.22;;;;;;;;;;5013986;28;20508;-80
2023/04/13 00:09:24;;;;;;;;;;;;;;;;;;5015262;28;20033;-79
2023/04/13 00:11:50;;;;;;;9.50;4.95;;;;;;;;;;5013004;28;20399;-79
2023/04/13 00:14:17;;;;;;;8.52;5.28;;;;;;;;;;4996328;28;20124;-79
2023/04/13 00:16:45;;;;;;;9.32;5.45;;;;;;;;;;4994938;28;20129;-79
2023/04/13 00:19:11;;;;;;;9.35;5.07;;;;;;;;;;4997061;28;20117;-80
2023/04/13 00:21:40;;;;;;;8.70;4.78;;;;;;;;;;4998316;28;20569;-79
2023/04/13 00:24:06;;;;;;;8.45;5.20;;;;;;;;;;4999891;28;20033;-79
2023/04/13 00:26:32;;;;;;;10.32;5.50;;;;;;;;;;4998947;28;20309;-79
2023/04/13 00:28:57;;;;;;;9.45;5.65;;;;;;;;;;4996210;28;20033;-79
2023/04/13 00:31:22;;;;;;;8.38;5.20;;;;;;;;;;4995825;28;20034;-79
2023/04/13 00:33:48;;;;;;;6.88;4.53;;;;;;;;;;5000360;28;20473;-79
2023/04/13 00:36:13;;;;;;;8.55;4.88;;;;;;;;;;4981352;28;20495;-79
2023/04/13 00:38:43;;;;;;;9.00;5.00;;;;;;;;;;4998278;28;20096;-79
2023/04/13 00:41:10;;;;;;;8.63;5.38;;;;;;;;;;4983070;28;20033;-79
2023/04/13 00:43:35;;;;;;;10.43;5.68;;;;;;;;;;4988637;28;20050;-79
2023/04/13 00:46:01;;;;;;;10.13;4.75;;;;;;;;;;4994395;28;20025;-79
2023/04/13 00:48:26;;;;;;;9.80;5.25;;;;;;;;;;5016763;28;20115;-79
2023/04/13 00:50:54;;;;;;;8.43;5.32;;;;;;;;;;4993423;28;20060;-79
2023/04/13 00:53:20;;;;;;;8.55;5.25;;;;;;;;;;5014789;28;20381;-79
2023/04/13 00:55:47;;;;;;;10.05;5.70;;;;;;;;;;4998731;28;20033;-79
2023/04/13 00:58:12;;;;;;;9.63;5.30;;;;;;;;;;4999906;28;20034;-79
2023/04/13 01:00:38;;;;;;;10.50;5.53;;;;;;;;;;4983266;28;20493;-79
2023/04/13 01:03:03;;;;;;;9.73;5.85;;;;;;;;;;5003910;28;20038;-79
2023/04/13 01:06:06;;;;;;;9.98;5.88;;;;;;;;;;5005487;28;20215;-79
2023/04/13 01:08:47;;;;;;;9.15;5.78;;;;;;;;;;5014107;28;20037;-79
2023/04/13 01:11:20;;;;;;;10.27;5.90;;;;;;;;;;4997445;28;20087;-80
2023/04/13 01:13:55;;;;;;;11.70;5.90;;;;;;;;;;4985326;28;20041;-79
2023/04/13 01:16:24;;;;;;;10.73;5.68;;;;;;;;;;4989132;28;20490;-79
2023/04/13 01:18:52;;;;;;;12.40;6.03;;;;;;;;;;5004817;28;20590;-80
2023/04/13 01:21:20;;;;;;;12.35;6.82;;;;;;;;;;4997140;28;20764;-79
2023/04/13 01:23:54;;;;;;;12.13;6.88;;;;;;;;;;4988696;28;20493;-79
2023/04/13 01:26:21;;;;;;;12.35;6.63;;;;;;;;;;4993877;28;20069;-79
2023/04/13 01:28:47;;;;;;;11.57;6.57;;;;;;;;;;4985567;28;20040;-79
2023/04/13 01:31:12;;;;;;;10.27;5.93;;;;;;;;;;4997155;28;20035;-79
2023/04/13 01:33:40;;;;;;;11.75;6.53;;;;;;;;;;4986987;28;20517;-79
2023/04/13 01:36:08;;;;;;;11.68;6.97;;;;;;;;;;4981312;28;20509;-79
2023/04/13 01:38:36;;;;;;;11.02;6.30;;;;;;;;;;4995727;28;20042;-79
2023/04/13 01:41:02;;;;;;;10.38;6.10;;;;;;;;;;4994520;28;20490;-79
2023/04/13 01:43:28;;;;;;;13.05;6.68;;;;;;;;;;4996764;28;20099;-79
2023/04/13 01:46:00;;;;;;;9.20;5.10;;;;;;;;;;4995316;28;20121;-79
2023/04/13 01:48:55;;;;;;;11.88;6.47;;;;;;;;;;4993062;28;20059;-79
2023/04/13 01:51:23;;;;;;;10.20;5.78;;;;;;;;;;4981834;28;20041;-79
2023/04/13 01:53:53;;;;;;;11.20;5.85;;;;;;;;;;4994677;28;20059;-79
2023/04/13 01:56:21;;;;;;;11.85;5.68;;;;;;;;;;4994837;28;20095;-79
2023/04/13 01:58:50;;;;;;;12.32;5.82;;;;;;;;;;4981185;28;21232;-78
2023/04/13 02:01:16;;;;;;;13.55;6.38;;;;;;;;;;4986356;28;20037;-79
2023/04/13 02:03:42;;;;;;;11.88;6.70;;;;;;;;;;4996843;28;20047;-79
2023/04/13 02:06:09;;;;;;;11.13;5.88;;;;;;;;;;4999095;28;20026;-79
2023/04/13 02:08:35;;;;;;;11.15;5.90;;;;;;;;;;4978741;28;20100;-79
2023/04/13 02:11:02;;;;;;;10.43;5.85;;;;;;;;;;4982192;28;20125;-79
2023/04/13 02:13:31;;;;;;;11.32;5.90;;;;;;;;;;4981543;28;20149;-79
2023/04/13 02:15:57;;;;;;;10.10;5.55;;;;;;;;;;4981055;28;20034;-79
2023/04/13 02:18:23;;;;;;;12.73;6.25;;;;;;;;;;4995073;28;20080;-79
2023/04/13 02:21:08;;;;;;;11.98;6.07;;;;;;;;;;4993075;28;20412;-79
2023/04/13 02:23:34;;;;;;;11.05;5.70;;;;;;;;;;4987659;28;20049;-79
2023/04/13 02:26:20;;;;;;;12.38;5.80;;;;;;;;;;4975999;28;20771;-79
2023/04/13 02:28:46;;;;;;;10.70;6.10;;;;;;;;;;4954074;28;20065;-79
2023/04/13 02:31:15;;;;;;;9.68;5.57;;;;;;;;;;4955550;28;20038;-79
2023/04/13 02:33:42;;;;;;;10.95;5.75;;;;;;;;;;4955188;28;20502;-79
2023/04/13 02:36:08;;;;;;;10.50;5.30;;;;;;;;;;4954245;28;20031;-79
2023/04/13 02:38:36;;;;;;;10.60;5.35;;;;;;;;;;4953752;28;20047;-79
2023/04/13 02:41:02;;;;;;;9.75;5.22;;;;;;;;;;4952751;28;20158;-80
2023/04/13 02:43:28;;;;;;;11.82;5.28;;;;;;;;;;4928713;28;20043;-80
2023/04/13 02:45:54;;;;;;;12.35;5.60;;;;;;;;;;4940047;28;20069;-79
2023/04/13 02:48:19;;;;;;;10.07;5.05;;;;;;;;;;4957427;28;20122;-79
2023/04/13 02:50:45;;;;;;;10.75;4.80;;;;;;;;;;4972718;28;20105;-78
2023/04/13 02:53:11;;;;;;;9.85;4.82;;;;;;;;;;4946173;28;20085;-79
2023/04/13 02:55:37;;;;;;;9.15;4.15;;;;;;;;;;4971656;28;20845;-79
2023/04/13 02:58:03;;;;;;;9.60;4.35;;;;;;;;;;4933165;28;20557;-79
2023/04/13 03:00:29;;;;;;;9.68;4.75;;;;;;;;;;4958267;28;20126;-79
2023/04/13 03:02:55;;;;;;;10.10;4.53;;;;;;;;;;4946532;28;20485;-79
2023/04/13 03:05:21;;;;;;;9.32;4.55;;;;;;;;;;4973336;28;20068;-79
2023/04/13 03:07:46;;;;;;;11.70;4.70;;;;;;;;;;4997760;28;20056;-79
2023/04/13 03:10:12;;;;;;;8.20;3.88;;;;;;;;;;5016148;28;20041;-79
2023/04/13 03:12:38;;;;;;;8.73;3.90;;;;;;;;;;5000453;28;20030;-79
2023/04/13 03:15:07;;;;;;;9.88;4.07;;;;;;;;;;4997450;28;20045;-79
2023/04/13 03:17:32;;;;;;;8.38;3.70;;;;;;;;;;5014359;28;20033;-78
2023/04/13 03:19:58;;;;;;;7.68;4.20;;;;;;;;;;5012788;28;20033;-79
2023/04/13 03:22:24;;;;;;;8.57;4.22;;;;;;;;;;4997349;28;20114;-78
2023/04/13 03:24:50;;;;;;;7.05;4.07;;;;;;;;;;4987193;28;20149;-79
2023/04/13 03:27:16;;;;;;;8.50;3.72;;;;;;;;;;4991154;28;20755;-78
2023/04/13 03:29:41;;;;;;;7.22;3.78;;;;;;;;;;5000422;28;20043;-79
2023/04/13 03:32:07;;;;;;;9.82;3.85;;;;;;;;;;4994997;28;20040;-79
2023/04/13 03:34:32;;;;;;;6.60;3.17;;;;;;;;;;4986750;28;20042;-78
2023/04/13 03:36:58;;;;;;;9.48;3.83;;;;;;;;;;5000303;28;20409;-79
2023/04/13 03:39:23;;;;;;;6.95;3.33;;;;;;;;;;4997674;28;20040;-78
2023/04/13 03:41:48;;;;;;;6.88;3.65;;;;;;;;;;5014081;28;20071;-79
2023/04/13 03:44:14;;;;;;;6.28;3.40;;;;;;;;;;5014772;28;20120;-78
2023/04/13 03:46:40;;;;;;;7.57;3.83;;;;;;;;;;5003196;28;20041;-78
2023/04/13 03:49:07;;;;;;;10.35;3.88;;;;;;;;;;4997306;28;20044;-78
2023/04/13 03:51:33;;;;;;;9.77;3.90;;;;;;;;;;5013690;28;20046;-80
2023/04/13 03:53:59;;;;;;;7.40;3.10;;;;;;;;;;5012594;28;20034;-80
2023/04/13 03:56:25;;;;;;;6.28;3.22;;;;;;;;;;5015437;28;20044;-78
2023/04/13 03:58:51;;;;;;;8.13;3.58;;;;;;;;;;4983061;28;20060;-78
2023/04/13 04:01:16;;;;;;;7.65;3.60;;;;;;;;;;5015113;28;20103;-80
2023/04/13 04:03:42;;;;;;;6.35;3.45;;;;;;;;;;4997289;28;20129;-80
2023/04/13 04:06:08;;;;;;;6.85;3.50;;;;;;;;;;5013698;28;20040;-80
2023/04/13 04:08:34;;;;;;;8.07;3.78;;;;;;;;;;5017354;28;20034;-80
2023/04/13 04:10:59;;;;;;;8.68;3.97;;;;;;;;;;5012931;28;20033;-80
2023/04/13 04:13:25;;;;;;;7.40;3.70;;;;;;;;;;4999686;28;20037;-80
2023/04/13 04:15:50;;;;;;;7.63;3.72;;;;;;;;;;4994479;28;20038;-80
2023/04/13 04:18:16;;;;;;;7.57;3.65;;;;;;;;;;4996708;28;20038;-80
2023/04/13 04:20:41;;;;;;;10.65;3.97;;;;;;;;;;4982029;28;20120;-80
2023/04/13 04:23:08;;;;;;;11.52;4.63;;;;;;;;;;4996305;28;20477;-80
2023/04/13 04:25:35;;;;;;;7.00;3.47;;;;;;;;;;4994563;28;20108;-80
2023/04/13 04:28:01;;;;;;;9.65;3.40;;;;;;;;;;5005419;28;20041;-76
2023/04/13 04:30:32;;;;;;;7.97;4.03;;;;;;;;;;4997966;28;20048;-76
2023/04/13 04:33:01;;;;;;;9.93;4.10;;;;;;;;;;5014413;28;20033;-79
2023/04/13 04:35:32;;;;;;;7.82;4.00;;;;;;;;;;5015001;28;20042;-76
2023/04/13 04:38:02;;;;;;;8.43;4.57;;;;;;;;;;4997984;28;20029;-78
2023/04/13 04:40:27;;;;;;;8.45;3.92;;;;;;;;;;4995376;28;20124;-76
2023/04/13 04:42:53;;;;;;;10.75;4.50;;;;;;;;;;4988071;28;20159;-76
2023/04/13 04:45:19;;;;;;;8.93;4.63;;;;;;;;;;5013922;28;20037;-76
2023/04/13 04:47:45;;;;;;;9.60;4.40;;;;;;;;;;5013061;28;20551;-76
2023/04/13 04:50:11;;;;;;;8.88;4.40;;;;;;;;;;4994988;28;20113;-76
2023/04/13 04:52:38;;;;;;;13.82;5.13;;;;;;;;;;4995354;28;20445;-79
2023/04/13 04:55:05;;;;;;;10.27;4.60;;;;;;;;;;4976959;28;20041;-80
2023/04/13 04:57:33;;;;;;;17.83;5.78;;;;;;;;;;4975183;28;20041;-80
2023/04/13 05:00:00;;;;;;;9.70;4.78;;;;;;;;;;4974158;28;20390;-80
2023/04/13 05:02:26;;;;;;;11.70;5.45;;;;;;;;;;4978884;28;20030;-79
2023/04/13 05:04:52;;;;;;;11.43;5.03;;;;;;;;;;4992208;28;20402;-80
2023/04/13 05:07:17;;;;;;;10.40;4.47;;;;;;;;;;4988472;28;20029;-79
2023/04/13 05:09:43;;;;;;;9.57;4.70;;;;;;;;;;4996242;28;20031;-80
2023/04/13 05:12:09;;;;;;;9.02;4.15;;;;;;;;;;5010787;28;20026;-80
2023/04/13 05:14:35;;;;;;;9.85;4.75;;;;;;;;;;5012951;28;20041;-80
2023/04/13 05:17:00;;;;;;;11.20;4.93;;;;;;;;;;5010605;28;20029;-79
2023/04/13 05:19:26;;;;;;;11.00;4.95;;;;;;;;;;4998472;28;20060;-79
2023/04/13 05:21:52;;;;;;;10.13;5.00;;;;;;;;;;4998850;28;20099;-80
2023/04/13 05:24:17;;;;;;;10.95;5.13;;;;;;;;;;4984461;28;20045;-80
2023/04/13 05:26:43;;;;;;;9.68;4.95;;;;;;;;;;4981411;28;20061;-80
2023/04/13 05:29:08;;;;;;;10.07;4.85;;;;;;;;;;5012252;28;20041;-80
2023/04/13 05:31:34;;;;;;;10.55;5.32;;;;;;;;;;4993797;28;20034;-80
2023/04/13 05:34:00;;;;;;;9.57;4.80;;;;;;;;;;5011829;28;20374;-79
2023/04/13 05:36:27;;;;;;;8.93;5.05;;;;;;;;;;4983740;28;20029;-79
2023/04/13 05:39:13;;;;;;;8.75;4.72;;;;;;;;;;5002022;28;20232;-80
2023/04/13 05:41:38;;;;;;;10.45;4.55;;;;;;;;;;4945824;28;20043;-80
2023/04/13 05:44:04;;;;;;;10.05;4.90;;;;;;;;;;4944734;28;20039;-80
2023/04/13 05:46:29;;;;;;;11.07;5.57;;;;;;;;;;4930924;28;20051;-79
2023/04/13 05:48:55;;;;;;;9.50;4.63;;;;;;;;;;4946857;28;20041;-80
2023/04/13 05:51:20;;;;;;;11.70;5.10;;;;;;;;;;4927358;28;20039;-80
2023/04/13 05:53:46;;;;;;;10.25;5.13;;;;;;;;;;4945515;28;20151;-80
2023/04/13 05:56:12;;;;;;;8.50;4.10;;;;;;;;;;4943546;28;20102;-80
2023/04/13 05:58:37;;;;;;;10.10;4.82;;;;;;;;;;4944541;28;20075;-79
2023/04/13 06:01:03;;;;;;;10.43;4.95;;;;;;;;;;4927182;28;20189;-79
2023/04/13 06:03:29;;;;;;;9.40;4.70;;;;;;;;;;4923410;29;20047;-80
2023/04/13 06:05:54;;;;;;;9.52;4.72;;;;;;;;;;4943582;28;20062;-80
2023/04/13 06:08:31;;;;;;;11.43;4.78;;;;;;;;;;4926991;28;20046;-80
2023/04/13 06:10:57;;;;;;;8.48;4.10;;;;;;;;;;4928730;28;20035;-79
2023/04/13 06:13:23;;;;;;;9.73;4.40;;;;;;;;;;4945742;28;20041;-79
2023/04/13 06:15:48;;;;;;;9.55;4.00;;;;;;;;;;4927976;28;20050;-78
2023/04/13 06:18:14;;;;;;;9.60;4.70;;;;;;;;;;4951054;28;20041;-78
2023/04/13 06:20:39;;;;;;;8.55;4.13;;;;;;;;;;5013202;28;20070;-77
2023/04/13 06:23:06;;;;;;;8.43;4.60;;;;;;;;;;4998053;28;20042;-78
2023/04/13 06:25:31;;;;;;;9.82;4.13;;;;;;;;;;4987087;28;20066;-78
2023/04/13 06:27:57;;;;;;;6.95;3.88;;;;;;;;;;5012374;28;20034;-79
2023/04/13 06:30:22;;;;;;;8.70;4.30;;;;;;;;;;5004482;28;20044;-79
2023/04/13 06:32:47;;;;;;;7.60;4.13;;;;;;;;;;4994509;28;20048;-79
2023/04/13 06:35:14;;;;;;;9.00;3.95;;;;;;;;;;4983282;28;20125;-79
2023/04/13 06:37:39;;;;;;;10.40;4.15;;;;;;;;;;4993153;28;20425;-75
2023/04/13 06:40:09;;;;;;;7.10;3.35;;;;;;;;;;5013779;28;20041;-79
2023/04/13 06:42:35;;;;;;;7.60;3.25;;;;;;;;;;5012965;28;20033;-81
2023/04/13 06:45:01;;;;;;;8.80;3.70;;;;;;;;;;4994452;28;20041;-81
2023/04/13 06:47:26;;;;;;;7.38;3.65;;;;;;;;;;4997726;28;20044;-81
2023/04/13 06:49:52;;;;;;;7.22;3.25;;;;;;;;;;4995016;28;20157;-80
2023/04/13 06:52:17;;;;;;;7.63;3.10;;;;;;;;;;4993695;28;20142;-80
2023/04/13 06:54:42;;;;;;;5.53;2.38;;;;;;;;;;4995150;28;20029;-80
2023/04/13 06:57:08;;;;;;;5.78;2.85;;;;;;;;;;5012583;28;20410;-80
2023/04/13 06:59:33;;;;;;;4.93;2.22;;;;;;;;;;5009944;28;20034;-80
2023/04/13 07:01:58;;;;;;;5.53;2.40;;;;;;;;;;4995239;28;20046;-80
2023/04/13 07:04:24;;;;;;;6.05;2.45;;;;;;;;;;4992249;28;20117;-81
2023/04/13 07:07:10;;;;;;;6.65;3.45;;;;;;;;;;5009391;28;20034;-81
2023/04/13 07:09:36;;;;;;;5.07;2.42;;;;;;;;;;4926591;29;20175;-80
2023/04/13 07:12:04;;;;;;;6.00;2.85;;;;;;;;;;4911753;29;20119;-81
2023/04/13 07:14:34;;;;;;;6.65;2.40;;;;;;;;;;4917643;29;20562;-80
2023/04/13 07:17:01;;;;;;;5.38;2.28;;;;;;;;;;4925860;29;20131;-80
2023/04/13 07:19:28;;;;;;;4.93;2.45;;;;;;;;;;4911551;29;20091;-81
2023/04/13 07:21:53;;;;;;;4.85;2.42;;;;;;;;;;4926464;29;20043;-80
2023/04/13 07:24:19;;;;;;;5.30;2.38;;;;;;;;;;4907578;29;20247;-81
2023/04/13 07:27:05;;;;;;;5.47;2.30;;;;;;;;;;4909609;29;20044;-80
2023/04/13 07:29:31;;;;;;;5.82;2.33;;;;;;;;;;4862210;29;20055;-80
2023/04/13 07:32:04;;;;;;;5.10;2.25;;;;;;;;;;4857534;29;20116;-81
2023/04/13 07:34:30;;;;;;;4.88;2.50;;;;;;;;;;4870697;29;20068;-81
2023/04/13 07:36:55;;;;;;;4.72;2.30;;;;;;;;;;4874214;29;20037;-80
2023/04/13 07:39:21;;;;;;;4.40;2.00;;;;;;;;;;4872283;29;20041;-80
2023/04/13 07:41:46;;;;;;;5.22;2.28;;;;;;;;;;4871149;29;20156;-81
2023/04/13 07:44:13;;;;;;;8.02;2.55;;;;;;;;;;4853608;29;20069;-80
2023/04/13 07:46:39;;;;;;;4.03;1.92;;;;;;;;;;4898672;28;20135;-79
2023/04/13 07:49:05;;;;;;;5.70;1.85;;;;;;;;;;4921876;29;20137;-79
2023/04/13 07:51:33;;;;;;;4.03;1.90;;;;;;;;;;4934256;29;20503;-80
2023/04/13 07:53:59;;;;;;;3.63;1.52;;;;;;;;;;4926902;29;20039;-80
2023/04/13 07:56:25;;;;;;;2.97;1.40;;;;;;;;;;4941615;29;20035;-80
2023/04/13 07:58:51;;;;;;;4.82;1.95;;;;;;;;;;4925449;28;20039;-80
2023/04/13 08:01:16;;;;;;;3.40;1.40;;;;;;;;;;4930727;29;20046;-80
2023/04/13 08:03:42;;;;;;;3.42;1.35;;;;;;;;;;4929639;28;20043;-80
2023/04/13 08:06:08;;;;;;;2.85;1.38;;;;;;;;;;4968371;28;20128;-80
2023/04/13 08:08:33;;;;;;;3.10;1.50;;;;;;;;;;4996276;28;20519;-80
2023/04/13 08:10:59;;;;;;;2.95;1.35;;;;;;;;;;4996255;28;20038;-81
2023/04/13 08:13:26;;;;;;;3.17;1.20;;;;;;;;;;4986799;28;20041;-80
2023/04/13 08:15:55;;;;;;;4.50;1.45;;;;;;;;;;5006012;28;20639;-80
2023/04/13 08:18:21;;;;;;;2.90;1.45;;;;;;;;;;5016281;28;20029;-80
2023/04/13 08:20:47;;;;;;;3.15;1.20;;;;;;;;;;4994510;28;20042;-80
2023/04/13 08:23:13;;;;;;;3.22;1.17;;;;;;;;;;4989846;28;20132;-81
2023/04/13 08:25:40;;;;;;;2.80;1.40;;;;;;;;;;4998036;28;20473;-81
2023/04/13 08:28:06;;;;;;;3.10;1.10;;;;;;;;;;4998004;28;20121;-80
2023/04/13 08:30:32;;;;;;;2.60;1.02;;;;;;;;;;5014389;28;20045;-80
2023/04/13 08:32:58;;;;;;;2.17;0.82;;;;;;;;;;4990736;28;20038;-80
2023/04/13 08:35:23;;;;;;;2.10;0.90;;;;;;;;;;4996227;28;20030;-81
2023/04/13 08:37:49;;;;;;;2.85;1.10;;;;;;;;;;4984764;28;20034;-82
2023/04/13 08:40:17;;;;;;;2.40;1.08;;;;;;;;;;4998269;28;20048;-79
2023/04/13 08:42:43;;;;;;;2.47;0.90;;;;;;;;;;4997894;28;20536;-80
2023/04/13 08:45:09;;;;;;;2.03;1.00;;;;;;;;;;4994964;28;20046;-81
2023/04/13 08:47:35;;;;;;;4.07;0.80;;;;;;;;;;4986501;28;20068;-82
2023/04/13 08:50:01;;;;;;;5.97;1.30;;;;;;;;;;4989461;28;20060;-80
2023/04/13 08:52:27;;;;;;;2.85;0.75;;;;;;;;;;4988417;28;20497;-81
2023/04/13 08:54:54;;;;;;;3.00;0.80;;;;;;;;;;5013602;28;20041;-82
2023/04/13 08:57:21;;;;;;;2.50;0.82;;;;;;;;;;4996177;28;20061;-80
2023/04/13 08:59:49;;;;;;;3.22;0.88;;;;;;;;;;4981246;28;20045;-81
2023/04/13 09:02:15;;;;;;;3.83;1.05;;;;;;;;;;5006377;28;20030;-80
2023/04/13 09:04:42;;;;;;;3.13;0.65;;;;;;;;;;4994438;28;20551;-80
2023/04/13 09:07:11;;;;;;;1.58;0.68;;;;;;;;;;4996883;28;20045;-82
2023/04/13 09:09:37;;;;;;;3.38;0.70;;;;;;;;;;4994585;28;20120;-81
2023/04/13 09:12:04;;;;;;;3.58;0.80;;;;;;;;;;4996703;28;20041;-79
2023/04/13 09:14:30;;;;;;;2.97;0.73;;;;;;;;;;5013011;28;20041;-79
2023/04/13 09:16:56;;;;;;;2.22;0.80;;;;;;;;;;4995632;28;20404;-79
2023/04/13 09:19:31;;;;;;;2.53;0.57;;;;;;;;;;4986084;28;20136;-81
2023/04/13 09:21:57;;;;;;;2.33;0.70;;;;;;;;;;5014346;28;20499;-80
2023/04/13 09:24:22;;;;;;;2.78;0.60;;;;;;;;;;5014177;28;20055;-81
2023/04/13 09:26:49;;;;;;;3.67;0.60;;;;;;;;;;4993901;28;20049;-80
2023/04/13 09:29:18;;;;;;;2.17;0.73;;;;;;;;;;5001430;28;20539;-80
2023/04/13 09:31:45;;;;;;;2.30;0.55;;;;;;;;;;5003309;28;20041;-79
2023/04/13 09:34:11;;;;;;;2.85;0.50;;;;;;;;;;5012472;28;20065;-80
2023/04/13 09:36:37;;;;;;;3.70;0.77;;;;;;;;;;4991804;28;20060;-80
2023/04/13 09:39:04;;;;;;;1.75;0.60;;;;;;;;;;4996788;28;20121;-80
2023/04/13 09:41:33;;;;;;;4.30;0.70;;;;;;;;;;4978417;28;20045;-80
2023/04/13 09:44:15;;;;;;;3.17;0.47;;;;;;;;;;4984497;28;20052;-79
2023/04/13 09:46:40;;;;;;;1.45;0.40;;;;;;;;;;5004767;28;20045;-79
2023/04/13 09:49:06;;;;;;;2.08;0.63;;;;;;;;;;4994494;28;20037;-80
2023/04/13 09:51:38;;;;;;;2.40;0.55;;;;;;;;;;4991428;28;20043;-82
2023/04/13 09:54:07;;;;;;;1.77;0.57;;;;;;;;;;4998903;28;20048;-81
2023/04/13 09:56:46;;;;;;;1.95;0.50;;;;;;;;;;4996053;28;20468;-83
2023/04/13 09:59:12;;;;;;;1.45;0.43;;;;;;;;;;4998294;28;20095;-82
2023/04/13 10:01:41;;;;;;;3.40;0.50;;;;;;;;;;5003433;28;20561;-83
2023/04/13 10:04:08;;;;;;;1.60;0.80;;;;;;;;;;4994802;28;20040;-82
2023/04/13 10:06:38;;;;;;;1.67;0.40;;;;;;;;;;5014102;28;20061;-82
2023/04/13 10:09:04;;;;;;;2.50;0.60;;;;;;;;;;4997000;28;20040;-82
2023/04/13 10:11:35;;;;;;;2.80;0.60;;;;;;;;;;4984897;28;20042;-80
2023/04/13 10:14:01;;;;;;;2.88;0.57;;;;;;;;;;4994277;28;20168;-82
2023/04/13 10:17:04;;;;;;;2.78;0.63;;;;;;;;;;4979481;28;20124;-83
2023/04/13 10:19:32;;;;;;;1.80;0.68;;;;;;;;;;4997006;28;20041;-82
2023/04/13 10:21:58;;;;;;;1.52;0.40;;;;;;;;;;4981014;28;20038;-81
2023/04/13 10:24:24;;;;;;;2.60;0.60;;;;;;;;;;4979992;28;20046;-81
2023/04/13 10:26:53;;;;;;;2.55;0.47;;;;;;;;;;4957537;28;20567;-80
2023/04/13 10:29:26;;;;;;;1.35;0.50;;;;;;;;;;4960448;28;20641;-81
2023/04/13 10:31:54;;;;;;;4.55;0.75;;;;;;;;;;4963385;28;20034;-81
2023/04/13 10:34:26;;;;;;;;;;;;;;;;;;4965596;28;20709;-81
2023/04/13 10:36:57;;;;;;;3.35;0.73;;;;;;;;;;4957508;28;20343;-81
2023/04/13 10:39:27;;;;;;;1.33;0.50;;;;;;;;;;4952472;28;20687;-81
2023/04/13 10:42:06;;;;;;;2.58;0.60;;;;;;;;;;4953450;28;20500;-82
2023/04/13 10:44:43;;;;;;;2.08;0.40;;;;;;;;;;4974369;28;20105;-81
2023/04/13 10:47:10;;;;;;;2.28;0.60;;;;;;;;;;4962904;28;20379;-79
2023/04/13 10:49:35;;;;;;;1.25;0.45;;;;;;;;;;4971972;28;20063;-81
2023/04/13 10:52:01;;;;;;;1.75;0.77;;;;;;;;;;4963271;28;20399;-80
2023/04/13 10:54:27;;;;;;;1.50;0.60;;;;;;;;;;4943494;28;20027;-80
2023/04/13 10:56:56;;;;;;;2.15;0.57;;;;;;;;;;4952913;28;20109;-81
2023/04/13 10:59:21;;;;;;;1.98;0.40;;;;;;;;;;4961888;28;20063;-81
2023/04/13 11:01:47;;;;;;;2.28;0.50;;;;;;;;;;4951729;28;20074;-81
2023/04/13 11:04:12;;;;;;;2.75;0.88;;;;;;;;;;4952108;28;20467;-81
2023/04/13 11:06:38;;;;;;;3.83;0.47;;;;;;;;;;4954768;28;20126;-80
2023/04/13 11:09:10;;;;;;;1.98;0.40;;;;;;;;;;4955647;28;20054;-81
2023/04/13 11:11:36;;;;;;;1.90;0.50;;;;;;;;;;4956521;28;20121;-82
2023/04/13 11:14:02;;;;;;;1.70;0.47;;;;;;;;;;4944159;28;20049;-79
2023/04/13 11:16:27;;;;;;;1.45;0.40;;;;;;;;;;4957401;28;20035;-78
2023/04/13 11:19:01;;;;;;;4.10;0.40;;;;;;;;;;4954328;28;20031;-78
2023/04/13 11:21:26;;;;;;;1.00;0.40;;;;;;;;;;4971671;28;20720;-78
2023/04/13 11:23:52;;;;;;;1.38;0.40;;;;;;;;;;4974665;28;20043;-78
2023/04/13 11:26:18;;;;;;;2.50;0.40;;;;;;;;;;4958995;28;20506;-78
2023/04/13 11:28:45;;;;;;;2.33;0.63;;;;;;;;;;4972615;28;20042;-77
2023/04/13 11:31:11;;;;;;;1.00;0.38;;;;;;;;;;4977098;28;20035;-76
2023/04/13 11:33:38;;;;;;;1.95;0.40;;;;;;;;;;4957284;28;20043;-76
2023/04/13 11:36:04;;;;;;;1.75;0.40;;;;;;;;;;4953658;28;20538;-76
2023/04/13 11:38:31;;;;;;;2.05;0.45;;;;;;;;;;4965131;28;20079;-78
2023/04/13 11:41:01;;;;;;;2.10;0.60;;;;;;;;;;4958684;28;20035;-76
2023/04/13 11:43:27;;;;;;;1.90;0.40;;;;;;;;;;4967424;28;20799;-76
2023/04/13 11:45:53;;;;;;;1.92;0.45;;;;;;;;;;4968808;28;20065;-77
2023/04/13 11:48:19;;;;;;;2.30;0.50;;;;;;;;;;4967257;28;20049;-77
2023/04/13 11:50:45;;;;;;;2.63;0.50;;;;;;;;;;4974425;28;20093;-77
2023/04/13 11:53:10;;;;;;;1.33;0.35;;;;;;;;;;4974270;28;20483;-77
2023/04/13 11:55:37;;;;;;;0.90;0.40;;;;;;;;;;4974048;28;20042;-77
2023/04/13 11:58:08;;;;;;;2.08;0.50;;;;;;;;;;4976578;28;20034;-78
2023/04/13 12:00:36;;;;;;;1.05;0.35;;;;;;;;;;4976104;28;20030;-77
2023/04/13 12:03:04;;;;;;;2.00;0.52;;;;;;;;;;4975176;28;20418;-77
2023/04/13 12:05:30;;;;;;;2.45;0.40;;;;;;;;;;4973958;28;20076;-77
2023/04/13 12:07:56;;;;;;;1.33;0.45;;;;;;;;;;4982984;28;20487;-77
2023/04/13 12:10:26;;;;;;;4.47;1.02;;;;;;;;;;4971740;28;20093;-76
2023/04/13 12:12:56;;;;;;;1.88;0.60;;;;;;;;;;4955970;28;20035;-77
2023/04/13 12:15:24;;;;;;;2.50;0.55;;;;;;;;;;4959730;28;20341;-77
2023/04/13 12:17:53;;;;;;;2.97;0.50;;;;;;;;;;4964476;28;20049;-76
2023/04/13 12:20:19;;;;;;;2.17;0.50;;;;;;;;;;4976259;28;20076;-77
2023/04/13 12:22:44;;;;;;;2.03;0.75;;;;;;;;;;4961474;28;20526;-76
2023/04/13 12:25:16;;;;;;;1.42;0.50;;;;;;;;;;4992459;28;20040;-76
2023/04/13 12:27:42;;;;;;;3.40;0.73;;;;;;;;;;4994150;28;20030;-77
2023/04/13 12:30:14;;;;;;;0.88;0.40;;;;;;;;;;4996328;28;20042;-75
2023/04/13 12:32:44;;;;;;;2.60;0.50;;;;;;;;;;4986395;28;20039;-78
2023/04/13 12:35:09;;;;;;;2.55;0.50;;;;;;;;;;4993254;28;20042;-81
2023/04/13 12:37:39;;;;;;;1.30;0.50;;;;;;;;;;4995102;28;20442;-77
2023/04/13 12:40:09;;;;;;;2.63;0.52;;;;;;;;;;4985975;28;20506;-78
2023/04/13 12:42:35;;;;;;;1.42;0.60;;;;;;;;;;5009115;28;20608;-77
2023/04/13 12:45:01;;;;;;;0.95;0.50;;;;;;;;;;4999156;28;20073;-78
2023/04/13 12:47:26;;;;;;;2.65;0.50;;;;;;;;;;5010593;28;20540;-78
2023/04/13 12:50:12;;;;;;;3.25;0.50;;;;;;;;;;5012216;28;20037;-78
2023/04/13 12:52:40;;;;;;;3.88;0.60;;;;;;;;;;4925010;29;20043;-77
2023/04/13 12:55:06;;;;;;;1.80;0.52;;;;;;;;;;4925502;29;20063;-78
2023/04/13 12:57:31;;;;;;;2.03;0.40;;;;;;;;;;4925228;29;20044;-79
2023/04/13 12:59:57;;;;;;;1.77;0.55;;;;;;;;;;4925486;29;20047;-77
2023/04/13 13:02:24;;;;;;;2.35;0.70;;;;;;;;;;4924542;29;20054;-78
2023/04/13 13:04:50;;;;;;;1.42;0.40;;;;;;;;;;4909010;29;20553;-79
2023/04/13 13:07:17;;;;;;;2.17;0.70;;;;;;;;;;4924380;29;20031;-78
2023/04/13 13:09:42;;;;;;;1.23;0.50;;;;;;;;;;4925699;29;20058;-79
2023/04/13 13:12:08;;;;;;;1.40;0.50;;;;;;;;;;4906665;29;20036;-78
2023/04/13 13:14:33;;;;;;;2.10;0.57;;;;;;;;;;4909289;29;20050;-79
2023/04/13 13:16:59;;;;;;;2.03;0.50;;;;;;;;;;4925413;29;20043;-78
2023/04/13 13:19:25;;;;;;;2.88;0.77;;;;;;;;;;4909874;29;20094;-79
2023/04/13 13:21:50;;;;;;;3.60;0.60;;;;;;;;;;4924481;29;20040;-79
2023/04/13 13:24:16;;;;;;;1.83;0.52;;;;;;;;;;4909456;29;20518;-79
2023/04/13 13:26:41;;;;;;;1.67;0.45;;;;;;;;;;4924586;29;20577;-79
2023/04/13 13:29:06;;;;;;;1.85;0.40;;;;;;;;;;4943369;28;20048;-79
2023/04/13 13:31:32;;;;;;;1.42;0.50;;;;;;;;;;4995293;28;20042;-79
2023/04/13 13:33:57;;;;;;;2.30;0.57;;;;;;;;;;4990923;28;20038;-79
2023/04/13 13:36:23;;;;;;;2.50;0.70;;;;;;;;;;5003992;28;20038;-79
2023/04/13 13:38:48;;;;;;;1.35;0.45;;;;;;;;;;4995558;28;20053;-79
2023/04/13 13:41:14;;;;;;;1.17;0.50;;;;;;;;;;4995536;28;20111;-79
2023/04/13 13:43:39;;;;;;;1.52;0.73;;;;;;;;;;5011084;28;20565;-79
2023/04/13 13:46:05;;;;;;;1.30;0.50;;;;;;;;;;5012025;28;20040;-79
2023/04/13 13:48:30;;;;;;;1.27;0.40;;;;;;;;;;4998693;28;20391;-79
2023/04/13 13:50:56;;;;;;;4.07;0.60;;;;;;;;;;5011762;28;20052;-79
2023/04/13 13:53:22;;;;;;;3.40;0.50;;;;;;;;;;4999831;28;20034;-79
2023/04/13 13:55:48;;;;;;;2.10;0.68;;;;;;;;;;4999211;28;20030;-79
2023/04/13 13:58:14;;;;;;;2.70;0.70;;;;;;;;;;5000893;28;20516;-79
2023/04/13 14:00:40;;;;;;;2.90;0.65;;;;;;;;;;5013255;28;20030;-79
2023/04/13 14:03:05;;;;;;;2.85;0.70;;;;;;;;;;4988358;28;20033;-79
2023/04/13 14:05:31;;;;;;;1.75;0.50;;;;;;;;;;4997613;28;20038;-80
2023/04/13 14:07:56;;;;;;;3.15;0.50;;;;;;;;;;4996906;28;20056;-79
2023/04/13 14:10:22;;;;;;;1.63;0.40;;;;;;;;;;4994298;28;20033;-79
2023/04/13 14:12:47;;;;;;;3.60;0.82;;;;;;;;;;4993244;28;20465;-79
2023/04/13 14:15:12;;;;;;;2.20;0.52;;;;;;;;;;4994325;28;20037;-79
2023/04/13 14:17:38;;;;;;;0.95;0.50;;;;;;;;;;5012923;28;20042;-79
2023/04/13 14:20:10;;;;;;;2.25;0.50;;;;;;;;;;5011906;28;20504;-79
2023/04/13 14:22:37;;;;;;;2.85;0.50;;;;;;;;;;5011347;28;20041;-79
2023/04/13 14:25:04;;;;;;;2.55;0.73;;;;;;;;;;5012021;28;20382;-79
2023/04/13 14:27:30;;;;;;;1.25;0.40;;;;;;;;;;5003058;28;20581;-78
2023/04/13 14:29:56;;;;;;;3.13;0.50;;;;;;;;;;5011574;28;20053;-79
2023/04/13 14:32:21;;;;;;;2.53;0.47;;;;;;;;;;4996114;28;20482;-78
2023/04/13 14:34:46;;;;;;;1.45;0.47;;;;;;;;;;4996549;28;20092;-79
2023/04/13 14:37:13;;;;;;;1.95;0.40;;;;;;;;;;4979890;28;20040;-79
2023/04/13 14:39:39;;;;;;;2.40;0.40;;;;;;;;;;4977592;28;20592;-79
2023/04/13 14:42:05;;;;;;;1.92;0.40;;;;;;;;;;4991934;28;20030;-79